Time;durP1;ratioP1;P1;durP2;ratioP2;P2;SDS_P1;SDS_P2;PMS_P1;PMS_P2;Temp;Humidity;BMP_temperature;BMP_pressure;BME280_temperature;BME280_humidity;BME280_pressure;Samples;Min_cycle;Max_cycle;Signal;HPM_P1;HPM_P2
2022/04/23 00:00:53;;;;;;;20.35;15.07;;;;;;;10.49;70.44;100459.22;5064597;28;20021;-60
2022/04/23 00:03:18;;;;;;;19.25;14.75;;;;;;;10.44;70.50;100454.44;5067721;28;20116;-60
2022/04/23 00:05:44;;;;;;;20.08;15.07;;;;;;;10.41;70.79;100451.31;5064051;28;20043;-60
2022/04/23 00:08:10;;;;;;;20.15;15.02;;;;;;;10.39;70.85;100456.78;5065940;28;20391;-60
2022/04/23 00:10:36;;;;;;;21.20;15.02;;;;;;;10.37;71.22;100456.13;5065479;28;20048;-60
2022/04/23 00:13:03;;;;;;;22.92;16.05;;;;;;;10.35;70.78;100458.16;5062265;28;20103;-60
2022/04/23 00:15:29;;;;;;;19.90;15.45;;;;;;;10.31;71.06;100466.66;5063341;28;20040;-60
2022/04/23 00:17:54;;;;;;;19.70;15.63;;;;;;;10.30;71.21;100462.34;5066049;28;20081;-60
2022/04/23 00:20:23;;;;;;;20.15;15.77;;;;;;;10.29;71.40;100461.53;5063821;28;20035;-60
2022/04/23 00:22:48;;;;;;;19.13;15.30;;;;;;;10.26;71.19;100464.53;5066972;28;20031;-60
2022/04/23 00:25:13;;;;;;;20.80;16.00;;;;;;;10.26;71.52;100463.72;5066045;28;20025;-60
2022/04/23 00:27:39;;;;;;;22.65;16.65;;;;;;;10.24;71.57;100461.22;5064975;28;20028;-60
2022/04/23 00:30:05;;;;;;;23.77;15.60;;;;;;;10.23;71.57;100459.59;5065479;28;20036;-60
2022/04/23 00:32:31;;;;;;;22.30;15.95;;;;;;;10.21;71.54;100465.06;5065182;28;20121;-60
2022/04/23 00:34:56;;;;;;;18.83;14.98;;;;;;;10.18;71.69;100456.59;5068078;28;20499;-61
2022/04/23 00:37:21;;;;;;;24.30;15.98;;;;;;;10.15;72.07;100452.47;5069723;28;20136;-60
2022/04/23 00:39:48;;;;;;;20.73;15.90;;;;;;;10.15;72.00;100452.47;5068650;28;20522;-60
2022/04/23 00:42:13;;;;;;;24.40;16.42;;;;;;;10.14;72.07;100450.84;5068197;28;20059;-60
2022/04/23 00:44:38;;;;;;;22.00;15.73;;;;;;;10.11;72.38;100451.16;5070036;28;20021;-60
2022/04/23 00:47:04;;;;;;;21.30;16.27;;;;;;;10.11;72.28;100456.47;5069414;28;20020;-60
2022/04/23 00:49:30;;;;;;;19.67;15.77;;;;;;;10.09;72.37;100460.31;5068783;28;20020;-60
2022/04/23 00:51:55;;;;;;;22.52;17.15;;;;;;;10.10;72.06;100459.31;5070123;28;20051;-60
2022/04/23 00:54:22;;;;;;;21.50;17.15;;;;;;;10.06;72.62;100461.47;5070180;28;20058;-60
2022/04/23 00:56:47;;;;;;;22.55;17.00;;;;;;;10.05;72.64;100454.53;5068382;28;20384;-60
2022/04/23 00:59:13;;;;;;;21.77;17.42;;;;;;;10.02;72.67;100454.06;5066629;28;20468;-60
2022/04/23 01:01:40;;;;;;;24.17;17.45;;;;;;;10.01;72.89;100455.88;5069602;28;20024;-60
2022/04/23 01:04:06;;;;;;;25.80;18.02;;;;;;;9.99;73.20;100455.25;5068931;28;20030;-60
2022/04/23 01:06:34;;;;;;;22.67;18.40;;;;;;;9.88;73.03;100447.69;5066682;28;20491;-60
2022/04/23 01:09:01;;;;;;;22.85;18.40;;;;;;;9.94;73.28;100462.91;5068522;28;20039;-60
2022/04/23 01:11:26;;;;;;;24.33;18.60;;;;;;;9.93;73.19;100462.06;5070122;28;20020;-60
2022/04/23 01:13:51;;;;;;;22.33;18.15;;;;;;;9.93;73.41;100463.91;5068051;28;20078;-60
2022/04/23 01:16:18;;;;;;;23.23;18.60;;;;;;;9.90;73.52;100457.13;5066538;28;20062;-60
2022/04/23 01:18:44;;;;;;;22.25;18.45;;;;;;;9.92;73.20;100463.09;5065755;28;20561;-60
2022/04/23 01:21:10;;;;;;;22.42;18.08;;;;;;;9.91;73.04;100457.94;5069633;28;20262;-60
2022/04/23 01:23:40;;;;;;;25.80;18.35;;;;;;;9.87;73.50;100465.44;5068257;28;20403;-60
2022/04/23 01:26:07;;;;;;;24.23;18.90;;;;;;;9.84;73.36;100462.31;5064930;28;20036;-60
2022/04/23 01:28:34;;;;;;;22.90;19.45;;;;;;;9.79;73.93;100462.81;5067538;28;20491;-60
2022/04/23 01:30:59;;;;;;;25.23;20.48;;;;;;;9.78;73.76;100458.50;5068780;28;20051;-60
2022/04/23 01:33:25;;;;;;;25.52;20.27;;;;;;;9.78;74.16;100457.69;5067780;28;20474;-60
2022/04/23 01:35:50;;;;;;;25.77;19.60;;;;;;;9.78;73.73;100457.69;5065321;28;20035;-60
2022/04/23 01:38:16;;;;;;;25.60;20.45;;;;;;;9.78;73.96;100461.16;5068436;28;20381;-60
2022/04/23 01:40:42;;;;;;;26.75;20.50;;;;;;;9.79;74.31;100465.47;5068341;28;20031;-60
2022/04/23 01:43:08;;;;;;;27.33;20.63;;;;;;;9.76;74.54;100463.16;5068903;28;20032;-60
2022/04/23 01:45:34;;;;;;;26.52;21.80;;;;;;;9.75;74.54;100458.03;5068911;28;20029;-60
2022/04/23 01:47:59;;;;;;;28.20;21.70;;;;;;;9.75;74.52;100466.00;5070046;28;20046;-60
2022/04/23 01:50:25;;;;;;;27.92;21.88;;;;;;;9.68;74.77;100443.84;5067130;28;20021;-60
2022/04/23 01:52:50;;;;;;;28.75;22.63;;;;;;;9.72;74.71;100464.53;5068855;28;20029;-60
2022/04/23 01:55:15;;;;;;;27.73;21.85;;;;;;;9.69;74.87;100466.69;5069307;28;20063;-60
2022/04/23 01:57:41;;;;;;;30.90;22.65;;;;;;;9.71;74.82;100464.69;5063834;28;20129;-60
2022/04/23 02:00:10;;;;;;;30.77;23.63;;;;;;;9.65;75.10;100452.13;5069067;28;20119;-60
2022/04/23 02:02:36;;;;;;;31.25;24.40;;;;;;;9.69;75.55;100461.38;5068361;28;20039;-60
2022/04/23 02:05:06;;;;;;;31.67;24.55;;;;;;;9.68;75.24;100465.03;5069786;28;20028;-60
2022/04/23 02:07:39;;;;;;;32.03;24.77;;;;;;;9.64;75.36;100459.25;5065923;28;20125;-60
2022/04/23 02:10:10;;;;;;;32.22;24.30;;;;;;;9.62;75.54;100462.09;5068748;28;20527;-60
2022/04/23 02:12:38;;;;;;;32.33;25.60;;;;;;;9.63;75.57;100466.41;5067080;28;20384;-60
2022/04/23 02:15:06;;;;;;;31.90;24.75;;;;;;;9.65;75.97;100466.22;5068100;28;20154;-60
2022/04/23 02:17:41;;;;;;;33.53;25.55;;;;;;;9.67;75.84;100474.00;5067689;28;20119;-60
2022/04/23 02:20:13;;;;;;;32.22;25.52;;;;;;;9.70;75.89;100471.81;5066411;28;20037;-60
2022/04/23 02:22:40;;;;;;;33.88;25.25;;;;;;;9.65;76.03;100465.41;5068338;28;20039;-60
2022/04/23 02:25:06;;;;;;;34.85;25.55;;;;;;;9.68;75.83;100465.03;5068738;28;20093;-60
2022/04/23 02:27:48;;;;;;;31.77;25.08;;;;;;;9.68;75.92;100471.16;5067194;28;20032;-60
2022/04/23 02:30:19;;;;;;;34.05;25.08;;;;;;;9.68;76.05;100467.69;5066645;28;20105;-60
2022/04/23 02:32:46;;;;;;;33.42;26.42;;;;;;;9.65;76.02;100473.34;5062700;28;20040;-60
2022/04/23 02:35:14;;;;;;;34.80;26.58;;;;;;;9.65;76.25;100476.00;5068138;28;20028;-60
2022/04/23 02:37:42;;;;;;;35.25;25.50;;;;;;;9.65;76.53;100473.34;5061731;28;20028;-60
2022/04/23 02:40:08;;;;;;;34.38;26.40;;;;;;;9.63;76.49;100471.69;5067169;28;20039;-60
2022/04/23 02:42:34;;;;;;;32.20;25.65;;;;;;;9.62;76.60;100480.66;5067842;28;20029;-60
2022/04/23 02:45:01;;;;;;;33.78;26.50;;;;;;;9.59;76.64;100473.03;5066609;28;20024;-59
2022/04/23 02:47:40;;;;;;;33.97;26.35;;;;;;;9.59;76.73;100469.56;5067441;28;20487;-60
2022/04/23 02:50:05;;;;;;;35.88;27.60;;;;;;;9.56;76.87;100473.41;5068403;28;20029;-60
2022/04/23 02:52:31;;;;;;;35.00;27.33;;;;;;;9.55;77.01;100469.09;5067907;28;20036;-59
2022/04/23 02:54:56;;;;;;;39.92;27.10;;;;;;;9.53;76.90;100464.94;5058708;28;20044;-60
2022/04/23 02:57:21;;;;;;;35.13;27.77;;;;;;;9.51;76.77;100458.97;5064032;28;20035;-60
2022/04/23 02:59:46;;;;;;;35.47;27.73;;;;;;;9.53;77.12;100471.06;5066075;28;20028;-60
2022/04/23 03:02:12;;;;;;;37.65;29.55;;;;;;;9.50;77.30;100460.81;5064286;28;20055;-60
2022/04/23 03:04:37;;;;;;;39.47;28.95;;;;;;;9.50;77.14;100462.63;5066971;28;20044;-59
2022/04/23 03:07:03;;;;;;;35.65;28.02;;;;;;;9.47;77.21;100458.50;5067397;28;20020;-61
2022/04/23 03:09:29;;;;;;;38.55;28.85;;;;;;;9.44;77.51;100458.84;5065149;28;20021;-61
2022/04/23 03:11:54;;;;;;;39.30;28.35;;;;;;;9.36;77.49;100440.34;5065906;28;20024;-59
2022/04/23 03:14:20;;;;;;;36.08;28.63;;;;;;;9.43;77.55;100451.91;5065160;28;20491;-60
2022/04/23 03:16:45;;;;;;;36.80;29.23;;;;;;;9.41;77.52;100451.25;5066207;28;20051;-60
2022/04/23 03:19:11;;;;;;;39.03;29.00;;;;;;;9.42;77.97;100450.25;5066562;28;20603;-60
2022/04/23 03:21:36;;;;;;;40.47;29.42;;;;;;;9.34;77.90;100442.34;5061036;28;20024;-60
2022/04/23 03:24:01;;;;;;;37.92;28.88;;;;;;;9.42;77.78;100450.25;5071459;28;20098;-60
2022/04/23 03:26:26;;;;;;;38.70;29.08;;;;;;;9.44;77.89;100455.38;5065042;28;20028;-60
2022/04/23 03:28:52;;;;;;;37.58;28.83;;;;;;;9.44;77.98;100448.25;5062851;28;20055;-60
2022/04/23 03:31:17;;;;;;;39.25;29.60;;;;;;;9.46;78.13;100450.72;5067557;28;20028;-60
2022/04/23 03:33:42;;;;;;;36.28;29.30;;;;;;;9.46;78.14;100445.44;5066962;28;20040;-60
2022/04/23 03:36:08;;;;;;;38.47;30.02;;;;;;;9.47;78.25;100447.91;5065357;28;20403;-60
2022/04/23 03:38:33;;;;;;;42.17;30.20;;;;;;;9.50;78.33;100446.72;5064675;28;20089;-60
2022/04/23 03:40:58;;;;;;;40.47;29.02;;;;;;;9.51;78.23;100443.91;5067006;28;20353;-60
2022/04/23 03:43:25;;;;;;;42.47;30.80;;;;;;;9.54;78.12;100442.72;5063604;28;20178;-60
2022/04/23 03:45:51;;;;;;;38.40;29.55;;;;;;;9.54;78.24;100435.63;5066239;28;20032;-59
2022/04/23 03:48:17;;;;;;;38.00;29.25;;;;;;;9.53;78.36;100435.78;5065540;28;20399;-60
2022/04/23 03:50:42;;;;;;;37.28;29.15;;;;;;;9.51;78.40;100433.31;5065620;28;20032;-60
2022/04/23 03:53:08;;;;;;;38.25;29.25;;;;;;;9.52;78.44;100434.94;5068360;28;20074;-60
2022/04/23 03:55:34;;;;;;;38.22;30.65;;;;;;;9.50;78.50;100436.94;5064654;28;20035;-60
2022/04/23 03:58:00;;;;;;;41.85;29.92;;;;;;;9.46;78.46;100435.66;5066235;28;20032;-60
2022/04/23 04:00:26;;;;;;;39.40;30.33;;;;;;;9.47;78.43;100425.88;5064295;28;20105;-60
2022/04/23 04:02:54;;;;;;;42.65;30.63;;;;;;;9.47;78.58;100429.34;5063516;28;20477;-60
2022/04/23 04:05:20;;;;;;;38.22;29.02;;;;;;;9.46;78.69;100434.81;5066693;28;20506;-60
2022/04/23 04:07:47;;;;;;;39.88;30.27;;;;;;;9.47;78.78;100436.47;5065199;28;20032;-60
2022/04/23 04:10:15;;;;;;;39.85;30.20;;;;;;;9.45;78.78;100433.19;5064574;28;20023;-59
2022/04/23 04:12:41;;;;;;;40.30;29.92;;;;;;;9.46;78.84;100427.69;5064335;28;20484;-59
2022/04/23 04:15:08;;;;;;;39.42;30.60;;;;;;;9.44;78.98;100428.88;5065458;28;20059;-60
2022/04/23 04:17:35;;;;;;;39.70;31.17;;;;;;;9.38;78.74;100429.56;5064121;28;20033;-60
2022/04/23 04:20:01;;;;;;;40.05;31.13;;;;;;;9.40;79.01;100425.75;5065337;28;20403;-60
2022/04/23 04:22:26;;;;;;;40.22;30.42;;;;;;;9.38;78.96;100425.09;5066731;28;20472;-60
2022/04/23 04:24:51;;;;;;;42.10;30.98;;;;;;;9.35;78.96;100416.66;5065412;28;20028;-60
2022/04/23 04:27:17;;;;;;;38.55;30.08;;;;;;;9.36;79.16;100419.16;5066219;28;20085;-58
2022/04/23 04:29:43;;;;;;;41.40;30.25;;;;;;;9.39;79.36;100423.28;5063850;28;20028;-60
2022/04/23 04:32:08;;;;;;;42.40;31.52;;;;;;;9.40;79.53;100420.44;5064942;28;20472;-60
2022/04/23 04:34:33;;;;;;;44.40;30.77;;;;;;;9.36;79.32;100413.84;5063233;28;20028;-60
2022/04/23 04:37:03;;;;;;;38.88;30.05;;;;;;;9.37;79.26;100414.66;5062355;28;20029;-60
2022/04/23 04:39:29;;;;;;;40.13;30.92;;;;;;;9.37;79.34;100410.19;5064468;28;20024;-60
2022/04/23 04:41:54;;;;;;;41.20;30.80;;;;;;;9.35;79.48;100412.19;5066414;28;20085;-60
2022/04/23 04:44:20;;;;;;;42.05;31.20;;;;;;;9.35;79.55;100411.38;5065465;28;20033;-60
2022/04/23 04:46:45;;;;;;;41.78;30.85;;;;;;;9.35;79.51;100417.50;5066216;28;20020;-60
2022/04/23 04:49:10;;;;;;;42.25;31.15;;;;;;;9.36;79.67;100419.16;5063714;28;20036;-60
2022/04/23 04:51:36;;;;;;;41.78;31.65;;;;;;;9.36;79.81;100427.09;5066236;28;20039;-59
2022/04/23 04:54:03;;;;;;;42.35;31.45;;;;;;;9.39;79.46;100424.09;5065216;28;20071;-59
2022/04/23 04:56:28;;;;;;;40.25;30.73;;;;;;;9.39;79.84;100429.41;5066737;28;20115;-60
2022/04/23 04:58:54;;;;;;;37.58;29.90;;;;;;;9.39;79.87;100426.75;5063879;28;20108;-60
2022/04/23 05:01:19;;;;;;;38.35;30.33;;;;;;;9.41;79.82;100426.56;5063467;28;21747;-60
2022/04/23 05:03:44;;;;;;;39.70;31.23;;;;;;;9.45;79.61;100441.13;5065203;28;20037;-60
2022/04/23 05:06:10;;;;;;;38.70;30.75;;;;;;;9.45;79.49;100441.94;5065476;28;20048;-60
2022/04/23 05:08:36;;;;;;;37.70;30.08;;;;;;;9.48;79.70;100435.47;5065749;28;20043;-60
2022/04/23 05:11:03;;;;;;;41.05;30.73;;;;;;;9.49;79.67;100430.00;5057400;28;20032;-60
2022/04/23 05:13:28;;;;;;;39.75;30.95;;;;;;;9.48;79.89;100431.00;5064819;28;20029;-60
2022/04/23 05:15:54;;;;;;;37.10;30.75;;;;;;;9.54;79.63;100438.28;5062465;28;20488;-60
2022/04/23 05:18:19;;;;;;;39.50;31.17;;;;;;;9.59;79.84;100446.53;5061728;28;20364;-60
2022/04/23 05:20:44;;;;;;;38.55;31.23;;;;;;;9.64;79.52;100440.72;5069090;28;20042;-60
2022/04/23 05:23:10;;;;;;;38.80;30.33;;;;;;;9.70;79.70;100439.19;5069869;28;20032;-60
2022/04/23 05:25:35;;;;;;;37.65;30.02;;;;;;;9.74;79.35;100443.94;5067540;28;20029;-60
2022/04/23 05:28:01;;;;;;;38.78;31.42;;;;;;;9.78;79.40;100439.94;5068794;28;20040;-60
2022/04/23 05:30:26;;;;;;;38.22;31.50;;;;;;;9.82;79.73;100437.75;5069625;28;20029;-60
2022/04/23 05:32:51;;;;;;;39.50;30.10;;;;;;;9.89;79.37;100444.03;5069216;28;20060;-60
2022/04/23 05:35:16;;;;;;;44.92;31.48;;;;;;;9.95;79.33;100440.69;5068858;28;20097;-60
2022/04/23 05:37:42;;;;;;;39.30;31.10;;;;;;;9.99;79.58;100449.94;5067711;28;20043;-60
2022/04/23 05:40:07;;;;;;;37.55;30.17;;;;;;;10.04;78.93;100436.13;5068391;28;20089;-60
2022/04/23 05:42:33;;;;;;;38.72;30.25;;;;;;;10.09;78.74;100447.88;5068629;28;20043;-59
2022/04/23 05:44:58;;;;;;;39.92;30.13;;;;;;;10.13;78.89;100449.19;5069489;28;20452;-60
2022/04/23 05:47:24;;;;;;;39.85;30.27;;;;;;;10.19;78.75;100452.94;5064930;28;20028;-60
2022/04/23 05:49:49;;;;;;;38.28;30.40;;;;;;;10.24;78.62;100440.81;5068014;28;20523;-60
2022/04/23 05:52:14;;;;;;;38.83;30.05;;;;;;;10.29;78.38;100439.47;5068640;28;20025;-60
2022/04/23 05:54:40;;;;;;;38.40;30.05;;;;;;;10.30;78.37;100433.16;5068615;28;20032;-60
2022/04/23 05:57:05;;;;;;;39.15;29.85;;;;;;;10.32;78.01;100441.75;5066130;28;20545;-60
2022/04/23 05:59:31;;;;;;;34.60;29.60;;;;;;;10.37;78.33;100442.03;5065203;28;20032;-60
2022/04/23 06:01:57;;;;;;;38.58;30.52;;;;;;;10.40;78.08;100433.72;5057666;28;20039;-60
2022/04/23 06:04:29;;;;;;;36.72;29.85;;;;;;;10.45;78.00;100437.50;5057576;28;20037;-60
2022/04/23 06:06:55;;;;;;;38.53;30.30;;;;;;;10.53;77.73;100448.06;5065381;28;20496;-59
2022/04/23 06:09:21;;;;;;;37.97;30.40;;;;;;;10.57;77.63;100445.03;5060535;28;20036;-60
2022/04/23 06:11:46;;;;;;;38.10;29.63;;;;;;;10.63;77.51;100433.69;5062639;28;20024;-60
2022/04/23 06:14:11;;;;;;;36.95;29.67;;;;;;;10.64;77.63;100424.72;5060860;28;20047;-60
2022/04/23 06:16:37;;;;;;;40.70;30.73;;;;;;;10.71;77.27;100430.97;5064715;28;20044;-60
2022/04/23 06:19:03;;;;;;;38.70;30.33;;;;;;;10.79;77.77;100433.53;5066678;28;20078;-60
2022/04/23 06:21:28;;;;;;;38.55;29.55;;;;;;;10.82;77.20;100428.69;5066649;28;20425;-60
2022/04/23 06:23:53;;;;;;;36.33;30.42;;;;;;;10.89;76.85;100427.94;5065145;28;20485;-60
2022/04/23 06:26:18;;;;;;;36.17;29.42;;;;;;;10.95;76.75;100420.06;5063436;28;20109;-60
2022/04/23 06:28:44;;;;;;;39.03;30.13;;;;;;;11.00;76.44;100425.69;5062235;28;20028;-60
2022/04/23 06:31:09;;;;;;;39.08;29.55;;;;;;;11.03;76.35;100419.16;5059316;28;20108;-59
2022/04/23 06:33:34;;;;;;;38.00;29.65;;;;;;;11.07;76.71;100413.28;5059650;28;20028;-60
2022/04/23 06:36:00;;;;;;;35.67;29.40;;;;;;;11.13;76.07;100425.00;5058196;28;20047;-59
2022/04/23 06:38:25;;;;;;;38.08;28.98;;;;;;;11.21;76.13;100427.56;5064153;28;20024;-60
2022/04/23 06:40:51;;;;;;;36.08;29.45;;;;;;;11.25;75.45;100422.69;5066502;28;20029;-59
2022/04/23 06:43:16;;;;;;;39.88;30.58;;;;;;;11.34;75.64;100424.28;5067470;28;20240;-60
2022/04/23 06:45:42;;;;;;;36.67;29.52;;;;;;;11.42;75.73;100424.16;5066229;28;20036;-60
2022/04/23 06:48:08;;;;;;;37.65;29.08;;;;;;;11.51;75.65;100419.53;5066236;28;20040;-60
2022/04/23 06:50:35;;;;;;;34.70;29.13;;;;;;;11.58;75.07;100420.47;5066526;28;20023;-59
2022/04/23 06:53:01;;;;;;;35.75;28.40;;;;;;;11.59;74.92;100417.63;5066975;28;20031;-60
2022/04/23 06:55:27;;;;;;;32.92;27.42;;;;;;;11.63;74.61;100418.06;5066653;28;20404;-60
2022/04/23 06:57:53;;;;;;;35.20;28.10;;;;;;;11.65;74.05;100422.19;5067478;28;20032;-60
2022/04/23 07:00:22;;;;;;;35.83;28.27;;;;;;;11.68;73.53;100423.63;5066965;28;20031;-60
2022/04/23 07:02:48;;;;;;;33.28;27.73;;;;;;;11.71;73.30;100416.09;5067978;28;20039;-60
2022/04/23 07:05:13;;;;;;;36.05;29.13;;;;;;;11.83;73.97;100420.94;5068322;28;20449;-60
2022/04/23 07:07:38;;;;;;;33.85;29.05;;;;;;;11.89;73.79;100417.56;5066817;28;20025;-60
2022/04/23 07:10:04;;;;;;;36.60;27.77;;;;;;;11.94;72.69;100401.84;5067964;28;20381;-59
2022/04/23 07:12:29;;;;;;;33.45;26.08;;;;;;;11.95;72.27;100404.31;5067125;28;20490;-60
2022/04/23 07:14:55;;;;;;;36.38;27.90;;;;;;;11.99;72.36;100410.06;5067924;28;20020;-60
2022/04/23 07:17:26;;;;;;;33.47;28.20;;;;;;;12.09;72.14;100415.91;5067389;28;20023;-60
2022/04/23 07:19:53;;;;;;;34.70;27.58;;;;;;;12.17;72.22;100406.97;5067132;28;20031;-60
2022/04/23 07:22:19;;;;;;;34.28;28.00;;;;;;;12.21;71.89;100408.25;5067341;28;20127;-60
2022/04/23 07:24:45;;;;;;;32.58;27.08;;;;;;;12.27;71.66;100410.13;5067898;28;20085;-60
2022/04/23 07:27:11;;;;;;;32.80;27.17;;;;;;;12.28;71.70;100406.44;5067543;28;20025;-60
2022/04/23 07:29:36;;;;;;;34.38;27.77;;;;;;;12.45;71.73;100407.81;5066992;28;20035;-60
2022/04/23 07:32:02;;;;;;;31.33;27.38;;;;;;;12.55;71.49;100400.31;5067340;28;20023;-60
2022/04/23 07:37:30;;;;;;;31.40;27.33;;;;;;;12.69;70.94;100398.53;5067927;28;20094;-60
2022/04/23 07:40:10;;;;;;;31.70;26.58;;;;;;;12.76;70.42;100396.78;5066607;28;20062;-60
2022/04/23 07:42:36;;;;;;;31.15;26.35;;;;;;;12.82;70.46;100401.31;5060779;28;20043;-60
2022/04/23 07:45:02;;;;;;;32.30;26.13;;;;;;;12.89;69.86;100396.84;5064094;28;20024;-60
2022/04/23 07:47:28;;;;;;;31.27;25.67;;;;;;;12.92;69.75;100392.94;5067462;28;20365;-60
2022/04/23 07:49:53;;;;;;;32.00;26.65;;;;;;;13.01;69.52;100389.13;5065643;28;20495;-60
2022/04/23 07:52:19;;;;;;;32.83;25.65;;;;;;;13.00;68.42;100392.78;5067256;28;20025;-60
2022/04/23 07:54:44;;;;;;;30.05;24.85;;;;;;;13.02;68.45;100393.44;5067983;28;20320;-60
2022/04/23 07:57:11;;;;;;;31.17;24.88;;;;;;;13.07;68.14;100379.50;5066716;28;20017;-59
2022/04/23 07:59:41;;;;;;;29.90;24.25;;;;;;;13.10;67.63;100390.59;5066113;28;20028;-60
2022/04/23 08:02:08;;;;;;;30.45;24.80;;;;;;;13.19;67.70;100386.75;5065579;28;20036;-60
2022/04/23 08:04:33;;;;;;;30.38;25.30;;;;;;;13.26;67.14;100386.78;5067035;28;20020;-60
2022/04/23 08:06:59;;;;;;;29.98;24.83;;;;;;;13.33;66.83;100388.47;5067184;28;20036;-60
2022/04/23 08:09:24;;;;;;;31.88;24.67;;;;;;;13.42;66.27;100390.97;5065845;28;20032;-60
2022/04/23 08:11:49;;;;;;;33.05;25.63;;;;;;;13.50;66.45;100382.78;5067387;28;20095;-60
2022/04/23 08:14:14;;;;;;;31.23;25.05;;;;;;;13.54;65.87;100382.16;5066684;28;20028;-60
2022/04/23 08:16:41;;;;;;;30.42;24.63;;;;;;;13.62;66.23;100378.50;5066995;28;20033;-60
2022/04/23 08:19:08;;;;;;;29.73;24.77;;;;;;;13.68;66.03;100372.38;5065731;28;20047;-60
2022/04/23 08:21:34;;;;;;;30.60;25.35;;;;;;;13.72;65.82;100378.94;5067086;28;20125;-60
2022/04/23 08:23:59;;;;;;;34.15;25.08;;;;;;;13.81;65.32;100379.56;5066578;28;20483;-60
2022/04/23 08:26:24;;;;;;;30.85;24.17;;;;;;;13.79;64.71;100361.09;5067030;28;20025;-60
2022/04/23 08:31:33;;;;;;;27.95;24.75;;;;;;;13.88;64.47;100369.75;5062799;28;20027;-60
2022/04/23 08:33:59;;;;;;;30.33;24.33;;;;;;;13.91;64.86;100361.31;5066858;28;20021;-60
2022/04/23 08:36:32;;;;;;;33.10;26.35;;;;;;;14.01;64.59;100360.91;5066631;28;20502;-60
2022/04/23 08:38:58;;;;;;;32.53;25.70;;;;;;;14.12;64.79;100362.94;5060383;28;20028;-60
2022/04/23 08:41:31;;;;;;;32.25;26.15;;;;;;;14.19;65.28;100366.47;5066849;28;20029;-60
2022/04/23 08:44:05;;;;;;;28.77;24.65;;;;;;;14.18;63.78;100354.97;5067143;28;20074;-60
2022/04/23 08:46:40;;;;;;;33.50;25.77;;;;;;;14.20;63.60;100368.94;5062270;28;20070;-60
2022/04/23 08:49:17;;;;;;;33.92;24.80;;;;;;;14.29;63.69;100355.38;5065378;28;20025;-60
2022/04/23 08:51:51;;;;;;;31.95;25.70;;;;;;;14.41;63.57;100370.53;5066672;28;20404;-60
2022/04/23 08:54:16;;;;;;;34.25;24.95;;;;;;;14.47;63.26;100360.94;5066733;28;20108;-60
2022/04/23 08:56:43;;;;;;;30.73;25.50;;;;;;;14.58;62.88;100373.66;5063664;28;20119;-60
2022/04/23 08:59:12;;;;;;;34.28;26.27;;;;;;;14.74;63.62;100373.19;5063864;28;20052;-60
2022/04/23 09:01:38;;;;;;;30.45;25.98;;;;;;;14.90;62.83;100368.44;5065520;28;20040;-60
2022/04/23 09:04:08;;;;;;;31.90;24.42;;;;;;;14.94;61.71;100365.13;5064355;28;20365;-60
2022/04/23 09:06:34;;;;;;;34.42;24.98;;;;;;;14.87;61.04;100367.81;5062544;28;20099;-60
2022/04/23 09:09:11;;;;;;;34.13;25.38;;;;;;;14.92;60.84;100366.38;5060604;28;20492;-60
2022/04/23 09:11:37;;;;;;;29.30;25.55;;;;;;;14.85;60.46;100367.22;5068044;28;20028;-60
2022/04/23 09:14:03;;;;;;;31.63;24.23;;;;;;;14.84;60.21;100351.41;5063781;28;20384;-60
2022/04/23 09:24:49;;;;;;;32.97;26.00;;;;;;;14.82;60.07;100370.31;5065292;28;20105;-60
2022/04/23 09:27:14;;;;;;;34.30;26.52;;;;;;;14.80;60.59;100369.72;5069037;28;20055;-60
2022/04/23 09:29:42;;;;;;;35.10;27.00;;;;;;;14.86;61.03;100370.72;5068407;28;20044;-60
2022/04/23 09:32:17;;;;;;;31.88;26.73;;;;;;;14.88;60.71;100365.97;5069494;28;20019;-60
2022/04/23 09:34:42;;;;;;;36.95;26.52;;;;;;;15.00;60.77;100369.63;5065041;28;20067;-60
2022/04/23 09:37:08;;;;;;;33.00;27.27;;;;;;;15.03;60.71;100374.56;5069683;28;20060;-60
2022/04/23 09:39:35;;;;;;;34.05;27.40;;;;;;;14.99;60.38;100373.34;5068754;28;20028;-60
2022/04/23 09:42:19;;;;;;;31.65;27.23;;;;;;;14.89;59.72;100386.34;5069827;28;20028;-60
2022/04/23 09:44:46;;;;;;;35.08;26.85;;;;;;;14.88;60.32;100376.66;5069433;28;20032;-60
2022/04/23 09:47:29;;;;;;;32.17;27.20;;;;;;;14.94;60.01;100373.16;5069601;28;20036;-60
2022/04/23 09:49:55;;;;;;;35.83;27.60;;;;;;;15.05;59.95;100364.50;5066401;28;20048;-60
2022/04/23 09:52:27;;;;;;;33.25;27.35;;;;;;;15.33;60.37;100369.53;5069432;28;20017;-60
2022/04/23 09:54:54;;;;;;;37.75;27.15;;;;;;;15.58;60.25;100364.25;5069554;28;20404;-60
2022/04/23 09:57:20;;;;;;;33.63;27.67;;;;;;;15.80;59.10;100378.13;5068636;28;20028;-60
2022/04/23 09:59:45;;;;;;;38.03;27.75;;;;;;;15.89;58.65;100382.19;5068298;28;20418;-60
2022/04/23 10:02:19;;;;;;;33.70;27.70;;;;;;;16.04;58.18;100366.63;5068969;28;20024;-60
2022/04/23 10:04:46;;;;;;;34.58;27.67;;;;;;;16.18;58.74;100372.69;5069299;28;20021;-60
2022/04/23 10:07:13;;;;;;;33.40;27.77;;;;;;;16.42;58.34;100377.22;5068374;28;20066;-60
2022/04/23 10:09:41;;;;;;;29.95;26.45;;;;;;;16.63;58.13;100362.59;5068245;28;20060;-60
2022/04/23 10:12:08;;;;;;;30.85;26.95;;;;;;;16.49;56.75;100365.66;5068775;28;20021;-60
2022/04/23 10:14:41;;;;;;;34.63;28.45;;;;;;;16.59;57.45;100356.06;5069193;28;20396;-60
2022/04/23 10:17:09;;;;;;;33.70;27.88;;;;;;;16.70;56.14;100370.59;5068812;28;20515;-60
2022/04/23 10:19:35;;;;;;;31.98;26.63;;;;;;;16.83;55.94;100361.63;5067895;28;20025;-62
2022/04/23 10:22:03;;;;;;;34.75;26.38;;;;;;;16.82;55.64;100363.47;5068510;28;20124;-60
2022/04/23 10:24:37;;;;;;;32.87;27.60;;;;;;;16.86;55.00;100347.75;5068961;28;20599;-60
2022/04/23 10:27:10;;;;;;;35.35;27.50;;;;;;;16.95;55.21;100357.94;5062675;28;20033;-60
2022/04/23 10:29:38;;;;;;;33.85;26.67;;;;;;;17.00;55.08;100357.28;5063839;28;20021;-60
2022/04/23 10:32:16;;;;;;;35.58;27.58;;;;;;;17.08;54.81;100350.81;5063711;28;20028;-60
2022/04/23 10:34:43;;;;;;;34.88;27.05;;;;;;;17.13;54.96;100349.09;5062266;28;20042;-60
2022/04/23 10:37:29;;;;;;;31.65;28.13;;;;;;;17.00;54.88;100349.22;5065756;28;20068;-60
2022/04/23 10:39:54;;;;;;;36.35;26.73;;;;;;;16.87;54.23;100344.03;5063245;28;20495;-60
2022/04/23 10:42:21;;;;;;;38.42;27.02;;;;;;;16.81;53.72;100355.66;5063566;28;20031;-60
2022/04/23 10:44:49;;;;;;;30.27;26.38;;;;;;;16.78;53.67;100335.47;5067831;28;20032;-60
2022/04/23 10:47:29;;;;;;;32.45;27.08;;;;;;;16.95;54.08;100346.41;5065868;28;20037;-60
2022/04/23 10:50:18;;;;;;;32.95;27.40;;;;;;;17.13;54.50;100343.72;5064759;28;20056;-60
2022/04/23 10:52:44;;;;;;;;;;;;;;;17.32;54.32;100333.75;5082405;28;20391;-60
2022/04/23 10:55:12;;;;;;;34.65;28.83;;;;;;;17.39;53.50;100341.75;5057134;28;19919;-60
2022/04/23 10:57:41;;;;;;;32.45;27.55;;;;;;;17.55;53.83;100346.44;5063135;28;20713;-61
2022/04/23 11:00:17;;;;;;;34.22;28.05;;;;;;;17.75;53.15;100340.84;5061522;28;20040;-60
2022/04/23 11:02:54;;;;;;;34.83;28.27;;;;;;;18.03;53.75;100348.25;5055818;28;20037;-60
2022/04/23 11:13:49;;;;;;;34.80;28.30;;;;;;;18.25;51.44;100330.53;5067809;28;20047;-60
2022/04/23 11:16:19;;;;;;;40.05;28.27;;;;;;;18.23;50.88;100333.44;5068301;28;20028;-60
2022/04/23 11:18:46;;;;;;;31.63;27.60;;;;;;;18.27;51.04;100318.47;5065760;28;20024;-60
2022/04/23 11:21:13;;;;;;;33.25;27.42;;;;;;;18.24;50.41;100335.06;5067758;28;20535;-60
2022/04/23 11:23:48;;;;;;;32.20;27.85;;;;;;;18.34;50.72;100331.81;5067514;28;20128;-60
2022/04/23 11:26:15;;;;;;;34.72;29.42;;;;;;;18.41;51.02;100324.44;5068122;28;20028;-60
2022/04/23 11:28:41;;;;;;;33.78;27.95;;;;;;;18.44;50.68;100332.03;5066542;28;20319;-60
2022/04/23 11:31:10;;;;;;;32.80;27.88;;;;;;;18.76;51.70;100329.78;5065787;28;20025;-60
2022/04/23 11:33:36;;;;;;;32.38;26.92;;;;;;;18.93;50.71;100321.00;5061722;28;20190;-60